createdAt,value
2022-11-04T00:01:44.133Z,9.90
2022-11-04T00:04:13.796Z,9.90
2022-11-04T00:06:40.774Z,9.90
2022-11-04T00:09:11.954Z,9.90
2022-11-04T00:11:57.185Z,9.90
2022-11-04T00:14:24.549Z,10.00
2022-11-04T00:17:09.823Z,10.00
2022-11-04T00:19:55.770Z,10.00
2022-11-04T00:22:41.434Z,10.00
2022-11-04T00:25:28.392Z,10.00
2022-11-04T00:28:40.935Z,10.00
2022-11-04T00:31:27.578Z,10.00
2022-11-04T00:33:57.261Z,10.00
2022-11-04T00:36:24.769Z,10.00
2022-11-04T00:38:52.523Z,10.00
2022-11-04T00:41:28.749Z,10.00
2022-11-04T00:44:04.475Z,10.00
2022-11-04T00:46:33.325Z,10.00
2022-11-04T00:49:01.160Z,10.00
2022-11-04T00:51:27.939Z,10.00
2022-11-04T00:53:55.725Z,10.00
2022-11-04T00:56:22.514Z,10.00
2022-11-04T00:58:50.530Z,10.00
2022-11-04T01:01:19.019Z,10.00
2022-11-04T01:03:49.192Z,10.00
2022-11-04T01:06:16.881Z,9.90
2022-11-04T01:08:44.431Z,9.90
2022-11-04T01:11:11.721Z,9.80
2022-11-04T01:13:39.772Z,9.80
2022-11-04T01:16:08.898Z,9.80
2022-11-04T01:18:37.041Z,9.70
2022-11-04T01:21:05.329Z,9.60
2022-11-04T01:23:33.905Z,9.60
2022-11-04T01:26:00.541Z,9.60
2022-11-04T01:28:27.910Z,9.50
2022-11-04T01:30:54.493Z,9.50
2022-11-04T01:33:21.730Z,9.40
2022-11-04T01:35:48.539Z,9.40
2022-11-04T01:38:15.813Z,9.30
2022-11-04T01:40:42.464Z,9.30
2022-11-04T01:43:16.728Z,9.30
2022-11-04T01:45:55.138Z,9.20
2022-11-04T01:48:30.210Z,9.20
2022-11-04T01:50:57.354Z,9.10
2022-11-04T01:53:35.294Z,9.10
2022-11-04T01:56:11.749Z,9.10
2022-11-04T01:58:51.451Z,9.00
2022-11-04T02:01:19.704Z,9.00
2022-11-04T02:03:52.398Z,9.00
2022-11-04T02:06:21.553Z,9.00
2022-11-04T02:08:49.325Z,9.00
2022-11-04T02:11:36.976Z,9.00
2022-11-04T02:14:03.633Z,9.00
2022-11-04T02:16:43.253Z,8.90
2022-11-04T02:19:46.639Z,8.90
2022-11-04T02:22:16.948Z,8.90
2022-11-04T02:25:02.722Z,8.90
2022-11-04T02:27:38.159Z,8.80
2022-11-04T02:30:17.724Z,8.70
2022-11-04T02:33:14.097Z,8.70
2022-11-04T02:36:10.600Z,8.70
2022-11-04T02:38:40.593Z,8.60
2022-11-04T02:41:37.514Z,8.60
2022-11-04T02:44:13.014Z,8.60
2022-11-04T02:46:52.419Z,8.50
2022-11-04T02:49:27.793Z,8.50
2022-11-04T02:52:05.462Z,8.50
2022-11-04T02:54:38.845Z,8.40
2022-11-04T02:57:10.070Z,8.40
2022-11-04T02:59:41.920Z,8.30
2022-11-04T03:02:14.588Z,8.30
2022-11-04T03:04:46.194Z,8.20
2022-11-04T03:07:18.418Z,8.20
2022-11-04T03:09:51.222Z,8.20
2022-11-04T03:12:22.910Z,8.10
2022-11-04T03:14:54.881Z,8.10
2022-11-04T03:17:40.522Z,8.00
2022-11-04T03:20:14.582Z,8.00
2022-11-04T03:22:41.951Z,8.00
2022-11-04T03:25:10.114Z,7.90
2022-11-04T03:27:59.379Z,7.90
2022-11-04T03:30:26.050Z,7.90
2022-11-04T03:33:08.442Z,7.90
2022-11-04T03:35:35.279Z,8.00
2022-11-04T03:38:02.715Z,8.00
2022-11-04T03:40:29.455Z,8.10
2022-11-04T03:43:00.926Z,8.10
2022-11-04T03:45:27.808Z,8.20
2022-11-04T03:47:56.818Z,8.20
2022-11-04T03:50:39.660Z,8.20
2022-11-04T03:53:07.304Z,8.30
2022-11-04T03:56:07.157Z,8.30
2022-11-04T03:58:58.492Z,8.30
2022-11-04T04:01:53.185Z,8.20
2022-11-04T04:04:45.473Z,8.20
2022-11-04T04:07:18.305Z,8.20
2022-11-04T04:09:55.021Z,8.20
2022-11-04T04:12:38.554Z,8.10
2022-11-04T04:15:11.289Z,8.10
2022-11-04T04:17:44.533Z,8.00
2022-11-04T04:20:14.033Z,8.00
2022-11-04T04:22:48.599Z,7.90
2022-11-04T04:25:35.747Z,7.90
2022-11-04T04:28:04.704Z,7.80
2022-11-04T04:30:31.603Z,7.80
2022-11-04T04:33:05.889Z,7.80
2022-11-04T04:35:49.110Z,7.80
2022-11-04T04:38:42.544Z,7.70
2022-11-04T04:41:54.191Z,7.70
2022-11-04T04:44:45.698Z,7.60
2022-11-04T04:47:22.407Z,7.60
2022-11-04T04:49:57.542Z,7.50
2022-11-04T04:52:53.110Z,7.50
2022-11-04T04:55:20.870Z,7.50
2022-11-04T04:57:48.199Z,7.40
2022-11-04T05:00:18.290Z,7.30
2022-11-04T05:02:45.848Z,7.30
2022-11-04T05:07:46.111Z,7.20
2022-11-04T05:10:14.497Z,7.20
2022-11-04T05:13:01.367Z,7.10
2022-11-04T05:15:29.470Z,7.10
2022-11-04T05:17:58.414Z,7.00
2022-11-04T05:20:25.161Z,7.00
2022-11-04T05:22:52.505Z,6.90
2022-11-04T05:25:19.193Z,7.00
2022-11-04T05:27:46.500Z,7.00
2022-11-04T05:30:13.594Z,7.10
2022-11-04T05:32:40.542Z,7.10
2022-11-04T05:35:07.474Z,7.10
2022-11-04T05:37:34.723Z,7.10
2022-11-04T05:40:01.353Z,7.10
2022-11-04T05:42:29.805Z,7.10
2022-11-04T05:44:56.398Z,7.10
2022-11-04T05:47:23.665Z,7.10
2022-11-04T05:49:50.253Z,7.10
2022-11-04T05:52:17.510Z,7.10
2022-11-04T05:54:44.126Z,7.20
2022-11-04T05:57:11.425Z,7.30
2022-11-04T05:59:38.034Z,7.30
2022-11-04T06:02:05.529Z,7.30
2022-11-04T06:04:32.283Z,7.40
2022-11-04T06:06:59.327Z,7.40
2022-11-04T06:09:39.298Z,7.50
2022-11-04T06:12:10.599Z,7.50
2022-11-04T06:14:37.694Z,7.50
2022-11-04T06:17:04.955Z,7.60
2022-11-04T06:19:31.613Z,7.60
2022-11-04T06:22:00.392Z,7.60
2022-11-04T06:24:26.987Z,7.70
2022-11-04T06:26:54.303Z,7.70
2022-11-04T06:29:20.975Z,7.70
2022-11-04T06:31:48.235Z,7.80
2022-11-04T06:34:14.836Z,7.80
2022-11-04T06:36:42.060Z,7.80
2022-11-04T06:39:09.477Z,7.90
2022-11-04T06:41:36.100Z,7.90
2022-11-04T06:44:03.630Z,7.90
2022-11-04T06:46:38.630Z,7.90
2022-11-04T06:49:07.759Z,7.90
2022-11-04T06:51:34.388Z,7.90
2022-11-04T06:54:01.935Z,7.90
2022-11-04T06:56:28.513Z,8.00
2022-11-04T06:58:56.607Z,8.00
2022-11-04T07:01:26.019Z,8.00
2022-11-04T07:03:55.664Z,8.00
2022-11-04T07:06:22.589Z,8.00
2022-11-04T07:08:51.570Z,8.10
2022-11-04T07:11:20.972Z,8.10
2022-11-04T07:13:49.294Z,8.20
2022-11-04T07:16:16.170Z,8.20
2022-11-04T07:18:43.859Z,8.30
2022-11-04T07:21:11.245Z,8.30
2022-11-04T07:23:39.051Z,8.40
2022-11-04T07:26:08.034Z,8.40
2022-11-04T07:28:35.678Z,8.40
2022-11-04T07:31:04.155Z,8.40
2022-11-04T07:33:32.974Z,8.40
2022-11-04T07:36:06.732Z,8.40
2022-11-04T07:38:34.323Z,8.50
2022-11-04T07:41:02.374Z,8.50
2022-11-04T07:43:30.175Z,8.50
2022-11-04T07:46:10.212Z,8.40
2022-11-04T07:48:38.525Z,8.40
2022-11-04T07:51:06.980Z,8.40
2022-11-04T07:53:34.879Z,8.40
2022-11-04T07:56:08.871Z,8.40
2022-11-04T07:58:36.158Z,8.40
2022-11-04T08:01:05.525Z,8.40
2022-11-04T08:03:33.785Z,8.40
2022-11-04T08:06:01.988Z,8.50
2022-11-04T08:08:29.874Z,8.60
2022-11-04T08:11:03.781Z,8.60
2022-11-04T08:13:32.524Z,8.70
2022-11-04T08:16:09.440Z,8.70
2022-11-04T08:18:37.008Z,8.80
2022-11-04T08:21:04.834Z,8.80
2022-11-04T08:23:33.094Z,8.90
2022-11-04T08:26:00.444Z,8.90
2022-11-04T08:28:29.846Z,9.00
2022-11-04T08:31:06.562Z,9.20
2022-11-04T08:33:36.063Z,9.30
2022-11-04T08:36:22.540Z,9.50
2022-11-04T08:38:49.918Z,9.60
2022-11-04T08:41:30.884Z,9.50
2022-11-04T08:44:00.727Z,9.40
2022-11-04T08:46:29.561Z,9.40
2022-11-04T08:48:56.226Z,9.40
2022-11-04T08:51:26.025Z,9.40
2022-11-04T08:53:53.248Z,9.40
2022-11-04T08:56:23.858Z,9.30
2022-11-04T08:58:50.890Z,9.40
2022-11-04T09:01:19.323Z,9.40
2022-11-04T09:03:46.618Z,9.50
2022-11-04T09:06:17.981Z,9.60
2022-11-04T09:08:44.656Z,9.70
2022-11-04T09:11:13.503Z,9.90
2022-11-04T09:13:41.017Z,9.90
2022-11-04T09:16:09.562Z,10.00
2022-11-04T09:18:36.623Z,10.10
2022-11-04T09:21:05.833Z,10.10
2022-11-04T09:23:33.515Z,10.20
2022-11-04T09:26:09.672Z,10.40
2022-11-04T09:28:36.586Z,10.40
2022-11-04T09:31:16.636Z,10.50
2022-11-04T09:33:43.304Z,10.50
2022-11-04T09:36:11.022Z,10.50
2022-11-04T09:38:39.815Z,10.50
2022-11-04T09:41:25.618Z,10.40
2022-11-04T09:44:08.815Z,10.30
2022-11-04T09:46:37.900Z,10.30
2022-11-04T09:49:08.527Z,10.30
2022-11-04T09:51:53.938Z,10.30
2022-11-04T09:54:34.667Z,10.40
2022-11-04T09:57:03.663Z,10.40
2022-11-04T09:59:34.012Z,10.50
2022-11-04T10:02:06.169Z,10.70
2022-11-04T10:04:46.519Z,10.80
2022-11-04T10:07:41.665Z,10.90
2022-11-04T10:10:28.342Z,11.00
2022-11-04T10:13:05.157Z,11.10
2022-11-04T10:15:40.466Z,11.10
2022-11-04T10:18:14.908Z,11.00
2022-11-04T10:21:04.448Z,11.10
2022-11-04T10:24:13.845Z,11.20
2022-11-04T10:26:48.324Z,11.40
2022-11-04T10:29:22.078Z,11.70
2022-11-04T10:31:52.717Z,11.90
2022-11-04T10:34:29.346Z,12.10
2022-11-04T10:36:57.669Z,12.30
2022-11-04T10:39:29.625Z,12.30
2022-11-04T10:41:58.507Z,12.30
2022-11-04T10:44:34.627Z,12.40
2022-11-04T10:47:31.918Z,12.40
2022-11-04T10:50:31.446Z,12.60
2022-11-04T10:53:19.276Z,12.70
2022-11-04T10:56:09.330Z,12.80
2022-11-04T10:58:42.923Z,13.00
2022-11-04T11:01:25.338Z,13.10
2022-11-04T11:03:53.156Z,13.20
2022-11-04T11:06:33.175Z,13.10
2022-11-04T11:09:20.816Z,13.20
2022-11-04T11:11:52.052Z,13.10
2022-11-04T11:14:28.231Z,13.00
2022-11-04T11:16:55.583Z,13.00
2022-11-04T11:19:25.392Z,13.00
2022-11-04T11:21:54.660Z,12.90
2022-11-04T11:24:27.321Z,12.90
2022-11-04T11:26:59.198Z,12.90
2022-11-04T11:29:40.651Z,12.90
2022-11-04T11:32:27.193Z,12.90
2022-11-04T11:34:54.620Z,13.00
2022-11-04T11:38:01.205Z,13.00
2022-11-04T11:40:47.547Z,13.00
2022-11-04T11:43:29.621Z,12.80
2022-11-04T11:45:59.660Z,12.80
2022-11-04T11:48:31.737Z,12.70
2022-11-04T11:51:00.425Z,12.60
2022-11-04T11:53:37.968Z,12.50
2022-11-04T11:56:52.122Z,12.40
2022-11-04T12:02:30.704Z,12.20
2022-11-04T12:10:57.013Z,12.20
2022-11-04T12:13:32.190Z,12.20
2022-11-04T12:16:25.304Z,12.10
2022-11-04T12:19:15.270Z,12.10
2022-11-04T12:21:54.580Z,12.20
2022-11-04T12:24:53.594Z,12.20
2022-11-04T12:27:53.167Z,12.30
2022-11-04T12:30:32.299Z,12.30
2022-11-04T12:33:34.458Z,12.30
2022-11-04T12:36:08.655Z,12.30
2022-11-04T12:38:53.178Z,12.30
2022-11-04T12:42:31.301Z,12.40
2022-11-04T12:45:25.247Z,12.40
2022-11-04T12:47:59.877Z,12.50
2022-11-04T12:50:46.966Z,12.50
2022-11-04T12:53:29.972Z,12.50
2022-11-04T12:56:06.835Z,12.50
2022-11-04T12:59:08.618Z,12.50
2022-11-04T13:01:56.443Z,12.60
2022-11-04T13:04:32.656Z,12.60
2022-11-04T13:07:05.139Z,12.50
2022-11-04T13:09:40.498Z,12.30
2022-11-04T13:12:34.138Z,12.30
2022-11-04T13:15:05.313Z,12.40
2022-11-04T13:17:55.690Z,12.70
2022-11-04T13:20:45.084Z,12.80
2022-11-04T13:23:36.625Z,12.80
2022-11-04T13:26:06.826Z,12.70
2022-11-04T13:28:33.936Z,12.70
2022-11-04T13:31:27.480Z,12.60
2022-11-04T13:34:24.449Z,12.60
2022-11-04T13:37:32.961Z,12.60
2022-11-04T13:40:03.847Z,12.70
2022-11-04T13:43:23.559Z,12.70
2022-11-04T13:45:53.826Z,12.70
2022-11-04T13:48:25.444Z,12.80
2022-11-04T13:51:12.398Z,12.90
2022-11-04T13:53:45.062Z,12.90
2022-11-04T13:56:34.118Z,12.90
2022-11-04T13:59:27.545Z,12.90
2022-11-04T14:02:13.897Z,13.00
2022-11-04T14:04:41.989Z,13.00
2022-11-04T14:07:11.955Z,12.90
2022-11-04T14:09:44.415Z,12.90
2022-11-04T14:12:11.799Z,12.80
2022-11-04T14:14:43.555Z,12.70
2022-11-04T14:17:35.753Z,12.60
2022-11-04T14:20:06.042Z,12.60
2022-11-04T14:22:54.667Z,12.60
2022-11-04T14:25:34.171Z,12.50
2022-11-04T14:28:10.003Z,12.50
2022-11-04T14:30:43.619Z,12.40
2022-11-04T14:33:33.687Z,12.40
2022-11-04T14:36:22.133Z,12.30
2022-11-04T14:39:10.362Z,12.10
2022-11-04T14:41:40.155Z,12.10
2022-11-04T14:44:38.050Z,11.90
2022-11-04T14:47:21.925Z,11.70
2022-11-04T14:50:09.617Z,11.60
2022-11-04T14:52:42.198Z,11.40
2022-11-04T14:55:16.981Z,11.30
2022-11-04T14:57:52.465Z,11.20
2022-11-04T15:00:38.685Z,11.10
2022-11-04T15:03:52.008Z,11.00
2022-11-04T15:06:07.197Z,10.80
2022-11-04T15:08:40.765Z,10.70
2022-11-04T15:11:16.667Z,10.60
2022-11-04T15:13:51.248Z,10.60
2022-11-04T15:16:26.543Z,10.50
2022-11-04T15:18:56.999Z,10.60
2022-11-04T15:21:23.887Z,10.50
2022-11-04T15:23:55.804Z,10.50
2022-11-04T15:26:31.653Z,10.50
2022-11-04T15:29:02.039Z,10.50
2022-11-04T15:31:32.069Z,10.60
2022-11-04T15:34:03.908Z,10.60
2022-11-04T15:36:38.380Z,10.60
2022-11-04T15:39:08.808Z,10.60
2022-11-04T15:41:57.671Z,10.60
2022-11-04T15:44:31.328Z,10.60
2022-11-04T15:47:01.460Z,10.60
2022-11-04T15:49:31.366Z,10.60
2022-11-04T15:52:00.955Z,10.70
2022-11-04T15:54:41.177Z,10.70
2022-11-04T15:57:40.143Z,10.60
2022-11-04T16:00:16.701Z,10.60
2022-11-04T16:02:55.061Z,10.50
2022-11-04T16:05:33.362Z,10.40
2022-11-04T16:08:21.685Z,10.30
2022-11-04T16:10:50.446Z,10.30
2022-11-04T16:13:17.034Z,10.20
2022-11-04T16:16:02.034Z,10.10
2022-11-04T16:18:43.976Z,10.10
2022-11-04T16:21:29.067Z,10.00
2022-11-04T16:24:06.459Z,10.00
2022-11-04T16:26:42.494Z,10.00
2022-11-04T16:29:16.459Z,9.90
2022-11-04T16:31:43.783Z,9.90
2022-11-04T16:34:13.872Z,9.90
2022-11-04T16:36:41.188Z,9.90
2022-11-04T16:39:08.647Z,9.90
2022-11-04T16:41:39.694Z,10.00
2022-11-04T16:44:18.086Z,9.90
2022-11-04T16:46:45.530Z,10.00
2022-11-04T16:49:15.663Z,9.90
2022-11-04T16:51:43.096Z,10.00
2022-11-04T16:54:10.257Z,9.90
2022-11-04T16:56:38.812Z,10.00
2022-11-04T16:59:05.499Z,10.00
2022-11-04T17:01:32.741Z,10.00
2022-11-04T17:03:59.428Z,10.00
2022-11-04T17:06:26.368Z,10.00
2022-11-04T17:08:53.168Z,10.00
2022-11-04T17:11:20.159Z,9.90
2022-11-04T17:13:46.729Z,10.00
2022-11-04T17:16:14.786Z,9.90
2022-11-04T17:18:41.589Z,9.90
2022-11-04T17:21:11.913Z,9.90
2022-11-04T17:23:38.504Z,9.90
2022-11-04T17:26:05.964Z,9.90
2022-11-04T17:28:33.328Z,10.00
2022-11-04T17:31:02.343Z,9.90
2022-11-04T17:33:29.255Z,10.00
2022-11-04T17:35:56.722Z,9.90
2022-11-04T17:38:23.397Z,10.00
2022-11-04T17:41:09.165Z,10.00
2022-11-04T17:43:54.777Z,9.90
2022-11-04T17:46:41.546Z,9.90
2022-11-04T17:49:11.581Z,10.00
2022-11-04T17:51:40.132Z,9.90
2022-11-04T17:54:07.123Z,9.90
2022-11-04T17:56:34.238Z,9.90
2022-11-04T17:59:01.888Z,9.90
2022-11-04T18:01:28.871Z,9.90
2022-11-04T18:03:55.679Z,9.90
2022-11-04T18:06:22.948Z,9.80
2022-11-04T18:08:53.368Z,9.80
2022-11-04T18:11:40.209Z,9.80
2022-11-04T18:14:09.983Z,9.80
2022-11-04T18:16:45.040Z,9.70
2022-11-04T18:19:12.313Z,9.70
2022-11-04T18:21:39.028Z,9.70
2022-11-04T18:24:06.264Z,9.70
2022-11-04T18:26:32.957Z,9.60
2022-11-04T18:29:00.513Z,9.60
2022-11-04T18:31:33.431Z,9.70
2022-11-04T18:34:02.378Z,9.70
2022-11-04T18:36:30.695Z,9.70
2022-11-04T18:38:57.643Z,9.60
2022-11-04T18:41:25.086Z,9.70
2022-11-04T18:43:51.777Z,9.70
2022-11-04T18:46:19.522Z,9.70
2022-11-04T18:48:50.533Z,9.70
2022-11-04T18:51:20.311Z,9.70
2022-11-04T18:53:47.289Z,9.70
2022-11-04T18:56:17.024Z,9.70
2022-11-04T18:58:45.037Z,9.80
2022-11-04T19:01:26.591Z,9.70
2022-11-04T19:03:53.547Z,9.70
2022-11-04T19:06:29.775Z,9.70
2022-11-04T19:09:13.241Z,9.70
2022-11-04T19:12:09.404Z,9.70
2022-11-04T19:14:36.399Z,9.70
2022-11-04T19:17:03.170Z,9.60
2022-11-04T19:19:30.094Z,9.60
2022-11-04T19:21:57.337Z,9.70
2022-11-04T19:24:24.029Z,9.70
2022-11-04T19:26:51.418Z,9.70
2022-11-04T19:29:18.015Z,9.70
2022-11-04T19:31:45.335Z,9.60
2022-11-04T19:34:11.957Z,9.70
2022-11-04T19:36:39.317Z,9.70
2022-11-04T19:39:06.281Z,9.70
2022-11-04T19:41:52.409Z,9.70
2022-11-04T19:44:21.623Z,9.70
2022-11-04T19:46:49.593Z,9.70
2022-11-04T19:49:17.933Z,9.60
2022-11-04T19:51:44.773Z,9.60
2022-11-04T19:54:11.698Z,9.60
2022-11-04T19:56:39.569Z,9.60
2022-11-04T19:59:07.271Z,9.60
2022-11-04T20:01:35.317Z,9.60
2022-11-04T20:04:03.551Z,9.60
2022-11-04T20:06:32.476Z,9.50
2022-11-04T20:09:04.159Z,9.50
2022-11-04T20:11:33.388Z,9.50
2022-11-04T20:14:06.430Z,9.40
2022-11-04T20:16:39.761Z,9.40
2022-11-04T20:19:06.842Z,9.30
2022-11-04T20:21:36.606Z,9.30
2022-11-04T20:24:06.131Z,9.30
2022-11-04T20:26:35.065Z,9.30
2022-11-04T20:29:02.340Z,9.30
2022-11-04T20:31:32.864Z,9.20
2022-11-04T20:34:02.556Z,9.20
2022-11-04T20:36:29.608Z,9.20
2022-11-04T20:39:14.247Z,9.20
2022-11-04T20:41:42.412Z,9.10
2022-11-04T20:44:11.417Z,9.10
2022-11-04T20:46:39.080Z,9.10
2022-11-04T20:49:06.373Z,9.00
2022-11-04T20:51:38.989Z,8.90
2022-11-04T20:54:06.979Z,8.80
2022-11-04T20:56:36.778Z,8.80
2022-11-04T20:59:04.507Z,8.70
2022-11-04T21:01:34.769Z,8.60
2022-11-04T21:04:06.080Z,8.50
2022-11-04T21:06:37.491Z,8.40
2022-11-04T21:09:05.779Z,8.40
2022-11-04T21:11:34.630Z,8.20
2022-11-04T21:14:02.442Z,8.20
2022-11-04T21:16:30.635Z,8.10
2022-11-04T21:18:57.762Z,8.00
2022-11-04T21:21:28.024Z,7.90
2022-11-04T21:23:59.147Z,7.80
2022-11-04T21:26:28.769Z,7.80
2022-11-04T21:29:03.433Z,7.70
2022-11-04T21:31:31.843Z,7.70
2022-11-04T21:33:59.624Z,7.70
2022-11-04T21:36:26.766Z,7.60
2022-11-04T21:38:53.581Z,7.60
2022-11-04T21:41:26.158Z,7.60
2022-11-04T21:43:57.431Z,7.60
2022-11-04T21:46:25.647Z,7.50
2022-11-04T21:48:52.611Z,7.50
2022-11-04T21:51:22.711Z,7.40
2022-11-04T21:53:49.572Z,7.40
2022-11-04T21:56:25.597Z,7.40
2022-11-04T21:58:52.911Z,7.50
2022-11-04T22:01:24.701Z,7.50
2022-11-04T22:03:54.351Z,7.60
2022-11-04T22:06:22.181Z,7.50
2022-11-04T22:08:54.087Z,7.50
2022-11-04T22:11:25.940Z,7.50
2022-11-04T22:14:00.724Z,7.50
2022-11-04T22:16:31.117Z,7.40
2022-11-04T22:18:59.880Z,7.40
2022-11-04T22:21:27.989Z,7.30
2022-11-04T22:23:55.940Z,7.20
2022-11-04T22:26:25.704Z,7.20
2022-11-04T22:28:53.649Z,7.10
2022-11-04T22:31:24.265Z,7.00
2022-11-04T22:33:51.617Z,6.90
2022-11-04T22:36:19.154Z,6.90
2022-11-04T22:38:46.194Z,6.90
2022-11-04T22:41:22.066Z,6.80
2022-11-04T22:43:49.167Z,6.80
2022-11-04T22:46:19.689Z,6.70
2022-11-04T22:48:47.723Z,6.70
2022-11-04T22:51:15.174Z,6.60
2022-11-04T22:53:42.119Z,6.60
2022-11-04T22:56:10.673Z,6.60
2022-11-04T22:58:37.740Z,6.50
2022-11-04T23:01:07.586Z,6.50
2022-11-04T23:03:34.791Z,6.50
2022-11-04T23:06:04.132Z,6.40
2022-11-04T23:08:32.599Z,6.40
2022-11-04T23:11:22.418Z,6.40
2022-11-04T23:14:18.979Z,6.40
2022-11-04T23:17:08.394Z,6.40
2022-11-04T23:19:36.831Z,6.30
2022-11-04T23:22:22.412Z,6.40
2022-11-04T23:25:09.697Z,6.40
2022-11-04T23:28:04.595Z,6.30
2022-11-04T23:30:34.920Z,6.40
2022-11-04T23:33:06.911Z,6.40
2022-11-04T23:35:57.168Z,6.40
2022-11-04T23:38:24.904Z,6.50
2022-11-04T23:41:14.122Z,6.40
2022-11-04T23:43:40.742Z,6.50
2022-11-04T23:46:26.461Z,6.50
2022-11-04T23:49:11.861Z,6.40
2022-11-04T23:52:11.935Z,6.40
2022-11-04T23:54:57.696Z,6.40
2022-11-04T23:57:43.116Z,6.50
